Weather observations for the past three days for
Hawthorne, Hawthorne Municipal Airport
Metric (Imperial)
Date Time (pdt) Wind (kph) Vis. (km) Weather Sky Cond. Temperature (ºC) Relative Humidity Wind Chill (°C) Heat Index (°C) Pressure Precipitation (cm)
Air Dwpt 6 hour altimeter (cm) sea level (mb) 1 hr 3 hr 6 hr
Max. Min.
10 04:53 SE 7 11.27 Overcast OVC009 16.1 13.3 16.7 15 84% 75.97 1012.8
10 03:53 Calm 9.66 Overcast with Haze OVC011 16.7 13.9 84% 75.97 1012.7
10 02:53 Calm 9.66 Overcast with Haze OVC010 16.7 13.9 84% 75.97 1012.7
10 01:53 Calm 8.05 Fog/Mist OVC007 16.1 13.9 87% 75.97 1012.9
10 00:53 Calm 9.66 Fog/Mist OVC006 15.6 13.9 90% 76 1013.2
09 23:53 Calm 9.66 Fog/Mist OVC006 15.6 13.3 86% 76.02 1013.3
09 22:53 Vrbl 6 9.66 Fog/Mist OVC005 15.6 13.3 20 15 86% 76.02 1013.3
09 21:53 W 7 9.66 Fog/Mist OVC005 15.6 13.3 86% 76.02 1013.5
09 20:53 NW 9 11.27 Overcast OVC006 15.6 13.3 86% 76 1013.0
09 19:53 W 9 12.87 Overcast OVC008 16.1 13.3 84% 75.95 1012.3
09 18:53 NW 11 11.27 Overcast OVC009 17.2 13.9 81% 75.9 1011.9
09 17:53 W 17 12.87 Mostly Cloudy BKN011 18.3 13.9 76% 75.9 1011.6
09 16:53 W 19 16.09 Fair CLR 20 13.9 22.2 19.4 68% 75.9 1011.7
09 15:53 W 17 16.09 Fair CLR 20.6 13.9 66% 75.9 1011.6
09 14:53 W 17 G 30 12.87 Fair CLR 21.1 13.9 64% 75.95 1012.5
09 13:53 NW 13 16.09 Fair CLR 21.1 13.9 64% 76 1012.9
09 12:53 W 15 16.09 Fair CLR 21.1 13.9 64% 76 1013.2
09 11:53 Vrbl 9 14.48 Partly Cloudy SCT018 20.6 13.9 66% 76.05 1013.8
09 10:53 Calm 11.27 Mostly Cloudy BKN018 19.4 13.9 19.4 16.1 71% 76.07 1014.0
09 09:53 S 7 11.27 Overcast OVC014 17.8 13.9 78% 76.05 1013.8
09 08:53 SE 9 11.27 Overcast OVC012 17.2 13.9 81% 76.07 1014.0
09 07:53 SE 9 11.27 Overcast OVC011 16.7 13.9 84% 76.07 1014.0
09 06:53 Calm 11.27 Overcast OVC010 16.1 13.9 87% 76.05 1013.7
09 05:53 Vrbl 7 12.87 Overcast OVC009 16.1 13.3 84% 76.02 1013.3
09 04:53 Vrbl 9 12.87 Overcast OVC010 16.1 13.9 17.2 15.6 87% 76.02 1013.3
09 03:53 S 9 11.27 Overcast OVC011 16.7 13.9 84% 76.02 1013.3
09 02:53 E 6 11.27 Overcast OVC011 16.7 13.9 84% 76.02 1013.5
09 01:53 Calm 12.87 Overcast OVC011 16.7 13.3 80% 76.05 1013.8
09 00:53 Calm 14.48 Overcast OVC010 16.1 13.3 84% 76.1 1014.3
08 23:53 Calm 14.48 Overcast OVC009 16.1 13.3 84% 76.1 1014.5
08 22:53 NW 6 14.48 Overcast OVC009 16.1 13.3 19.4 15.6 84% 76.12 1014.7
08 21:53 SW 7 16.09 Overcast OVC008 16.1 13.3 84% 76.12 1014.6
08 20:53 W 11 16.09 Overcast OVC009 16.1 13.3 84% 76.1 1014.4
08 19:53 W 9 16.09 Overcast OVC010 16.7 13.3 80% 76.05 1013.8
08 18:53 W 13 16.09 Overcast OVC011 17.8 13.3 75% 76.02 1013.4
08 17:53 W 15 16.09 Overcast OVC012 18.3 13.9 76% 76.02 1013.3
08 16:53 W 20 16.09 A Few Clouds FEW015 19.4 13.9 21.1 18.3 71% 76.02 1013.4
08 15:53 W 20 16.09 Fair CLR 20.6 13.9 66% 76.05 1013.8
08 14:53 W 17 G 31 16.09 Fair CLR 20.6 13.9 66% 76.1 1014.6
08 13:53 W 15 16.09 Fair CLR 20.6 13.9 66% 76.15 1015.1
08 12:53 W 17 16.09 Overcast OVC020 20 13.9 68% 76.17 1015.6
08 11:53 W 11 16.09 Overcast OVC020 18.9 13.9 73% 76.23 1016.1
08 10:53 Calm 16.09 Overcast OVC017 18.3 13.3 18.3 16.7 73% 76.25 1016.4
08 09:53 SE 7 16.09 Overcast OVC015 17.8 13.3 75% 76.25 1016.5
08 08:53 Calm 16.09 Overcast OVC013 17.2 13.3 78% 76.25 1016.4
08 07:53 SE 9 16.09 Overcast OVC011 16.7 13.3 80% 76.25 1016.5
08 06:53 Vrbl 7 16.09 Overcast OVC011 16.7 13.9 84% 76.23 1016.2
08 05:53 Vrbl 6 16.09 Overcast OVC011 16.7 13.3 80% 76.2 1015.9
08 04:53 Calm 14.48 Overcast OVC013 16.7 12.8 17.2 16.1 78% 76.2 1015.6
08 03:53 SE 11 16.09 Overcast OVC013 16.7 12.8 78% 76.17 1015.4
08 02:53 S 9 16.09 Overcast OVC013 16.7 13.3 80% 76.17 1015.5
08 01:53 Calm 16.09 Overcast OVC013 16.7 13.3 80% 76.2 1015.8
08 00:53 Calm 16.09 Partly Cloudy SCT015 16.1 13.3 84% 76.23 1016.2
07 23:53 NW 6 16.09 Mostly Cloudy BKN010 16.1 13.9 87% 76.23 1016.1
07 22:53 SW 6 16.09 Fair CLR 16.7 13.9 20 16.7 84% 76.23 1016.0
07 21:53 W 7 16.09 Fair CLR 16.7 13.9 84% 76.2 1015.8
07 20:53 W 6 16.09 Fair CLR 16.7 13.3 80% 76.15 1015.2
07 19:53 W 11 16.09 Fair CLR 17.8 13.3 75% 76.1 1014.5
07 18:53 SW 15 16.09 Fair CLR 18.3 13.3 73% 76.07 1014.0
07 17:53 W 15 16.09 Fair CLR 19.4 13.3 68% 76.05 1013.9
07 16:53 SW 15 16.09 Fair CLR 19.4 13.3 21.1 19.4 68% 76.07 1014.0
07 15:53 W 20 G 30 16.09 Fair CLR 20.6 13.9 66% 76.07 1014.1
07 14:53 W 20 16.09 Fair CLR 20.6 13.3 63% 76.12 1014.7
07 13:53 W 20 G 33 16.09 Fair CLR 20.6 13.3 63% 76.15 1015.2
07 12:53 W 19 16.09 Fair CLR 20.6 13.3 63% 76.2 1015.7
07 11:53 W 9 16.09 Fair CLR 20.6 13.3 63% 76.23 1016.0
07 10:53 Vrbl 11 16.09 Fair CLR 20 12.8 20 15 63% 76.25 1016.3
07 09:53 Calm 16.09 Fair CLR 19.4 12.8 66% 76.25 1016.4
07 08:53 Vrbl 7 16.09 Fair CLR 17.8 13.3 75% 76.28 1016.6
07 07:53 W 7 16.09 A Few Clouds FEW011 16.7 13.3 80% 76.28 1016.7
07 06:53 W 9 16.09 Fair CLR 15.6 12.8 84% 76.25 1016.3
07 05:53 Calm 16.09 Fair CLR 15 12.8 87% 76.2 1015.9
Date Time (pdt) Wind (kph) Vis. (km) Weather Sky Cond. Air Dwpt Max. Min. Relative Humidity Wind Chill (°C) Heat Index (°C) altimeter (cm) sea level (mb) 1 hr 3 hr 6 hr
6 hour
Temperature (ºC) Pressure Precipitation (cm)